Asbury, Missouri
Current Conditions -  °F | °C
As of 7:53 PM on Friday 21 Nov 2014 (Local Time) from KJLN Reporting Station
Overcast Overcast  
Wind Chill: 50°   Ceiling: 1100
Heat Index: 50°   Visibility: 9mi
Dew Point: 45°   Wind: 10mph
Humidity: 83%   Direction: 130°SE
Pressure: 30.12"   Gusts: NA
Location:  37.27°N, 94.61°W
Report Text: KJLN 220153Z 13009KT 9SM OVC011 10/07 A3012 RMK AO2 SLP200 T01000072
Loading
Personal Weather Stations






























Interactive Weather Map New forecast layout! Learn more

10-Day Weather Forecast

Advertisements
Track Severe Weather on mobile